Apache Junction, Arizona
Current Conditions -  °F | °C
As of 6:50 PM on Sunday 25 Jan 2015 (Local Time) from KIWA Reporting Station
Scattered Clouds Scattered Clouds  
Wind Chill: 17°   Ceiling: Unl
Heat Index: 17°   Visibility: 20mi
Dew Point: -2°   Wind: 5mph
Humidity: 27%   Direction: 40°NE
Pressure: 30.08"   Gusts: NA
Location:  33.42°N, 111.54°W
Report Text: KIWA 260150Z 04004KT 20SM SCT100 17/M02 A3008
Loading
Personal Weather Stations






























Interactive Weather Map New forecast layout! Learn more

10-Day Weather Forecast

Advertisements
Track Severe Weather on mobile